Overview Statistics Trail Chart Weather Telemetry Raw packets
 

This is the latest recevied weather packets stored in our database for station/object I5EKX-13. If no packets are shown the sender has not sent any weather packets the latest 10 day(s).

<< 1 2 3 4 5 6 7 >>
Time Temp. Humidity Pressure Rain* Wind** Luminosity Snow
1788509329 30.56° C 61% 1014.4 hPa - - - -
1788508125 29.44° C 66% 1014.3 hPa - - - -
1788506921 28.33° C 76% 1014.1 hPa - - - -
1788505717 26.11° C 85% 1014 hPa - - - -
1788504512 25.56° C 90% 1014.1 hPa - - - -
1788503308 25.56° C 91% 1014 hPa - - - -
1788502104 24.44° C 93% 1014 hPa - - - -
1788500900 23.33° C 92% 1013.9 hPa - - - -
1788499696 22.78° C 93% 1013.8 hPa - - - -
1788498494 22.78° C 95% 1013.7 hPa - - - -
1788497288 22.78° C 94% 1013.7 hPa - - - -
1788496084 23.33° C 94% 1013.5 hPa - - - -
1788494880 22.78° C 93% 1013.5 hPa - - - -
1788493676 23.33° C 93% 1013.5 hPa - - - -
1788492472 22.78° C 93% 1013.6 hPa - - - -
1788491268 22.22° C 91% 1013.6 hPa - - - -
1788490064 22.22° C 92% 1013.7 hPa - - - -
1788488860 21.67° C 91% 1013.7 hPa - - - -
1788487656 21.67° C 90% 1013.8 hPa - - - -
1788486452 22.22° C 89% 1013.6 hPa - - - -
1788485248 22.22° C 92% 1013.5 hPa - - - -
1788484044 22.22° C 89% 1013.4 hPa - - - -
1788482840 22.22° C 89% 1013.5 hPa - - - -
1788481636 22.22° C 90% 1013.6 hPa - - - -
1788480432 21.67° C 89% 1013.6 hPa - - - -

* Rain since midnight (hover to see other rain measurements)
** Current wind speed in m/s (hover to see current wind gust speed)